»·PEaware :: SKW318 KSFO-KRNO

SKW318 :: KSFO-KRNO

FLIGHT INFORMATION

Flight Status: Arrived
Operator:
SkyWest Airlines
More flights by this operator :: More flights under this callsign
Pilot: Aundrey S. (17120)
Aircraft: CANADAIR CL-600 CRJ-200
(CRJ2)
More flights by this aircraft type
Origin: KSFO San Francisco Intl
United States
Destination: KRNO Reno/Tahoe Intl
United States
More flights between these airports :: More routes between these airports
Route: TRUKN2 ORRCA HOBOA WALAR
File this flight plan on PilotEdge
Remarks:
Altitude:
(Current/Filed)
21,000ft
Speed:
(Current/Filed)
450kts
Departed: 13-Jan-21 05:26 PM
Arrived: 13-Jan-21 06:08 PM
Distance/Time
Traveled:
167nm/0:42
Distance/Time
To Go:
Arrived

Flight Plot

Page will automatically refresh every two minutes.

Flight plan parsing failed; only flown route is shown


Map Options




Map Legend


Flown Route
Filed Route
Departure Airport
Arrival Airport
Navaid (VOR, NDB)
Fix

Horizontal Profiles

Position Reports

Time Latitude Longitude Heading Altitude Ground
Speed
13-Jan-21 16:36 37.621175 -122.389304 205 28ft 0kts
13-Jan-21 16:37 37.621175 -122.389304 205 28ft 0kts
13-Jan-21 16:38 37.621175 -122.389304 205 28ft 0kts
13-Jan-21 16:39 37.621175 -122.389304 205 28ft 0kts
13-Jan-21 16:40 37.621175 -122.389304 205 28ft 0kts
13-Jan-21 16:41 37.621175 -122.389304 205 28ft 0kts
13-Jan-21 16:42 37.621175 -122.389304 205 28ft 0kts
13-Jan-21 16:43 37.621175 -122.389304 205 28ft 0kts
13-Jan-21 16:44 37.621175 -122.389304 205 28ft 0kts
13-Jan-21 16:45 37.621175 -122.389304 205 28ft 0kts
13-Jan-21 16:46 37.621175 -122.389304 205 28ft 0kts
13-Jan-21 16:47 37.621175 -122.389304 205 28ft 0kts
13-Jan-21 16:48 37.621175 -122.389304 205 28ft 0kts
13-Jan-21 16:49 37.621175 -122.389304 205 28ft 0kts
13-Jan-21 16:50 37.621175 -122.389304 205 28ft 0kts
13-Jan-21 16:51 37.621175 -122.389304 205 28ft 0kts
13-Jan-21 16:52 37.621175 -122.389304 205 28ft 0kts
13-Jan-21 16:53 37.621175 -122.389304 205 28ft 0kts
13-Jan-21 16:54 37.621175 -122.389304 205 28ft 0kts
13-Jan-21 16:55 37.621175 -122.389304 205 28ft 0kts
13-Jan-21 16:56 37.621175 -122.389304 205 28ft 0kts
13-Jan-21 16:57 37.621175 -122.389304 205 28ft 0kts
13-Jan-21 16:58 37.621175 -122.389304 205 28ft 0kts
13-Jan-21 16:59 37.621175 -122.389304 205 28ft 0kts
13-Jan-21 17:00 37.621175 -122.389304 205 28ft 0kts
13-Jan-21 17:01 37.621175 -122.389304 205 28ft 0kts
13-Jan-21 17:02 37.621175 -122.389304 205 28ft 0kts
13-Jan-21 17:03 37.621175 -122.389304 205 28ft 0kts
13-Jan-21 17:04 37.621175 -122.389304 205 28ft 0kts
13-Jan-21 17:05 37.621175 -122.389304 205 28ft 0kts
13-Jan-21 17:06 37.621175 -122.389304 205 28ft 0kts
13-Jan-21 17:07 37.621175 -122.389304 205 28ft 0kts
13-Jan-21 17:08 37.621175 -122.389304 205 28ft 0kts
13-Jan-21 17:09 37.621195 -122.389291 205 28ft 2kts
13-Jan-21 17:10 37.621739 -122.388970 205 28ft 2kts
13-Jan-21 17:11 37.621765 -122.388954 205 28ft 0kts
13-Jan-21 17:12 37.621765 -122.388954 205 28ft 0kts
13-Jan-21 17:13 37.621765 -122.388954 205 28ft 0kts
13-Jan-21 17:14 37.621765 -122.388954 205 28ft 0kts
13-Jan-21 17:15 37.621765 -122.388954 205 28ft 0kts
13-Jan-21 17:16 37.621765 -122.388954 205 28ft 0kts
13-Jan-21 17:17 37.621765 -122.388954 205 28ft 0kts
13-Jan-21 17:18 37.621709 -122.388585 57 28ft 7kts
13-Jan-21 17:19 37.620231 -122.383297 118 28ft 21kts
13-Jan-21 17:20 37.616771 -122.379574 200 27ft 14kts
13-Jan-21 17:21 37.612235 -122.382551 207 28ft 19kts
13-Jan-21 17:22 37.609416 -122.383540 113 28ft 0kts
13-Jan-21 17:23 37.609416 -122.383540 113 28ft 0kts
13-Jan-21 17:24 37.609245 -122.382044 29 27ft 1kts
13-Jan-21 17:25 37.623067 -122.372899 27 75ft 158kts
13-Jan-21 17:26 37.661467 -122.320153 54 1531ft 235kts
13-Jan-21 17:27 37.698230 -122.251725 55 3729ft 252kts
13-Jan-21 17:28 37.750545 -122.183525 32 6004ft 288kts
13-Jan-21 17:29 37.813920 -122.127401 33 8166ft 268kts
13-Jan-21 17:30 37.877495 -122.069875 32 10354ft 297kts
13-Jan-21 17:31 37.950232 -122.003870 30 11976ft 334kts
13-Jan-21 17:32 38.026403 -121.934577 30 13766ft 340kts
13-Jan-21 17:33 38.103891 -121.863873 29 15561ft 347kts
13-Jan-21 17:34 38.183242 -121.791281 29 17384ft 357kts
13-Jan-21 17:36 38.265886 -121.715502 29 19227ft 378kts
13-Jan-21 17:37 38.352923 -121.635424 29 21067ft 396kts
13-Jan-21 17:38 38.445121 -121.548611 37 21384ft 431kts
13-Jan-21 17:39 38.531573 -121.439605 39 21380ft 439kts
13-Jan-21 17:40 38.617834 -121.329357 40 21366ft 438kts
13-Jan-21 17:41 38.703728 -121.219122 40 21357ft 436kts
13-Jan-21 17:42 38.789256 -121.108979 40 21378ft 435kts
13-Jan-21 17:43 38.874343 -120.999009 40 21392ft 433kts
13-Jan-21 17:44 38.959277 -120.888840 40 21400ft 433kts
13-Jan-21 17:45 39.043925 -120.778658 40 21435ft 432kts
13-Jan-21 17:46 39.127418 -120.669559 40 20447ft 425kts
13-Jan-21 17:47 39.209941 -120.561376 40 19167ft 420kts
13-Jan-21 17:48 39.290824 -120.454935 40 17892ft 412kts
13-Jan-21 17:49 39.370159 -120.350165 40 16618ft 404kts
13-Jan-21 17:50 39.444505 -120.244935 44 16431ft 387kts
13-Jan-21 17:51 39.515671 -120.138709 44 16022ft 383kts
13-Jan-21 17:52 39.571611 -120.026127 82 15675ft 380kts
13-Jan-21 17:53 39.578681 -119.891581 83 13986ft 369kts
13-Jan-21 17:53 39.583863 -119.781767 83 12561ft 359kts
13-Jan-21 17:55 39.549631 -119.657064 153 11600ft 320kts
13-Jan-21 17:55 39.482792 -119.624261 172 10865ft 306kts
13-Jan-21 17:57 39.385961 -119.604432 172 9998ft 289kts
13-Jan-21 17:57 39.324269 -119.592134 172 9999ft 250kts
13-Jan-21 17:58 39.259341 -119.602570 209 9524ft 241kts
13-Jan-21 17:59 39.210870 -119.660815 239 9629ft 240kts
13-Jan-21 18:00 39.206392 -119.743724 291 10017ft 227kts
13-Jan-21 18:01 39.258747 -119.773906 4 9810ft 234kts
13-Jan-21 18:02 39.325073 -119.768626 358 8199ft 243kts
13-Jan-21 18:03 39.386861 -119.768864 0 7048ft 186kts
13-Jan-21 18:04 39.433914 -119.768712 357 5880ft 169kts
13-Jan-21 18:05 39.476726 -119.769266 358 4631ft 142kts
13-Jan-21 18:06 39.508624 -119.769259 359 4410ft 46kts
13-Jan-21 18:07 39.510985 -119.769974 267 4413ft 0kts
13-Jan-21 18:08 39.510675 -119.771447 194 4413ft 9kts
13-Jan-21 18:09 39.508009 -119.771476 178 4411ft 6kts
13-Jan-21 18:10 39.505976 -119.772643 306 4410ft 6kts
13-Jan-21 18:11 39.506532 -119.772776 358 4411ft 0kts
13-Jan-21 18:12 39.506532 -119.772776 358 4411ft 0kts
13-Jan-21 18:13 39.506532 -119.772776 358 4411ft 0kts
13-Jan-21 18:14 39.506532 -119.772776 358 4411ft 0kts
13-Jan-21 18:15 39.506532 -119.772776 358 4411ft 0kts
13-Jan-21 18:16 39.506532 -119.772776 358 4411ft 0kts
13-Jan-21 18:17 39.506532 -119.772776 358 4411ft 0kts

Navigation Log

Ident Type
Flight plan parsing failed, navigation log unavailable